Terminal Aerodrome Forecast
Issued by NWS Albany, NY

Home | Current Version | Previous Version | Text Only | Print | Product List | Glossary On
Versions: 1 2 3 4 5 6 7 8 9 10 11 12 13 14 15 16 17 18 19 20 21 22
478
FTUS41 KALY 182023 AAB
TAFPOU
TAF AMD
KPOU 182023Z 1820/1918 16007KT P6SM SCT015 OVC035
     FM182100 16006KT 4SM -SHRA BR SCT008 OVC015
      TEMPO 1821/1824 2SM RA BR BKN008 OVC015
     FM190000 19004KT 5SM BR VCSH BKN015
     FM190800 00000KT 2SM BR BKN008
     FM191300 26004KT P6SM BKN035=

USA.gov is the U.S. government's official web portal to all federal, state and local government web resources and services.